Nearby METAR Reports

 

KIAG - Niagara Falls, New York, USA
Distance from station: W 13mi, 20km
Updated: Mon, 21-Sep-2020 12:53am EDT
Clear
Clear
 Wind from E
Wind: E 5 mph , 7 km/h
Temperature: 45°F , 7°C
Wind Chill: 42°F , 6°C
Dew Point: 34°F , 1°C
Humidity: 66%
Barometer: 30.54 inHg , 1034.2 hPa
Clouds: Clear
Visibility: 10 miles , 16 km
2020/09/21 04:53 KIAG 210453Z AUTO 09004KT 10SM CLR 07/01 A3054 RMK AO2 SLP348 T00670011 401720039 $
KBUF - Buffalo/Cheektow, New York, USA
Distance from station: S 15mi, 24km
Updated: Mon, 21-Sep-2020 12:54am EDT
Clear
Clear
 Wind from ESE
Wind: ESE 7 mph , 11 km/h
Temperature: 46°F , 8°C
Wind Chill: 42°F , 6°C
Dew Point: 36°F , 2°C
Humidity: 66%
Barometer: 30.54 inHg , 1034.2 hPa
Clouds: Clear
Visibility: 10 miles , 16 km
2020/09/21 04:54 KBUF 210454Z 12006KT 10SM CLR 08/02 A3054 RMK AO2 SLP346 T00780017 401780050
 
CYSN - St. Catharines A, Ontario, Canada
Distance from station: W 24mi, 39km
Updated: Sun, 20-Sep-2020 9:00pm EDT
NOT Current
Clear
Clear
 Wind from E
Wind: E 5 mph , 7 km/h
Temperature: 50°F , 10°C
Wind Chill: 48°F , 9°C
Dew Point: 37°F , 3°C
Humidity: 62%
Barometer: 30.54 inHg , 1034.2 hPa
Clouds: Clear
Visibility: 15 miles , 24 km
2020/09/21 01:00 CYSN 210100Z 10004KT 15SM SKC 10/03 A3054 RMK LAST STFD OBS/NEXT 21 1100UTC SLP345
CWWZ - Port Weller (mar, Ontario, Canada
Distance from station: WNW 28mi, 44km
Updated: Mon, 21-Sep-2020 1:00am EDT

 Wind from SSE
Wind: SSE 8 mph , 13 km/h
Temperature: 52°F , 11°C
Dew Point: 39°F , 4°C
Humidity: 62%
2020/09/21 05:00 CWWZ 210500Z AUTO 15007KT 11/04 RMK AO1 SLP346 T01130040 58001
 
CWPC - Port Colborne(Au, Ontario, Canada
Distance from station: SW 35mi, 56km
Updated: Mon, 21-Sep-2020 1:00am EDT

 Wind from ENE
Wind: ENE 9 mph , 15 km/h
Temperature: 50°F , 10°C
Wind Chill: 46°F , 8°C
Dew Point: 39°F , 4°C
Humidity: 67%
2020/09/21 05:00 CWPC 210500Z AUTO 06008KT 10/04 RMK AO1 SLP349 T00950037 58002
CXVN - Vineland (au8), Ontario, Canada
Distance from station: W 36mi, 58km
Updated: Mon, 21-Sep-2020 1:00am EDT

 Wind from SSE
Wind: SSE 3 mph , 6 km/h
Temperature: 46°F , 8°C
Dew Point: 36°F , 2°C
Humidity: 66%
2020/09/21 05:00 CXVN 210500Z AUTO 16003KT 08/02 RMK AO1 SLP345 T00820020 58002
 
CYTZ - Toronto Il Vor, Ontario, Canada
Distance from station: NW 49mi, 79km
Updated: Mon, 21-Sep-2020 1:00am EDT
Clear
Clear
 Wind from ESE
Wind: ESE 6 mph , 9 km/h
Temperature: 55°F , 13°C
Dew Point: 41°F , 5°C
Humidity: 59%
Barometer: 30.55 inHg , 1034.5 hPa
Clouds: Clear
Visibility: 9 miles , 14 km
2020/09/21 05:00 CYTZ 210500Z AUTO 12005KT 9SM CLR 13/05 A3055 RMK SLP347
KROC - Rochester, New York, USA
Distance from station: E 51mi, 81km
Updated: Mon, 21-Sep-2020 12:54am EDT
Clear
Clear
 Wind from SW
Wind: SW 3 mph , 6 km/h
Temperature: 39°F , 4°C
Dew Point: 37°F , 3°C
Humidity: 93%
Barometer: 30.57 inHg , 1035.2 hPa
Clouds: Clear
Visibility: 10 miles , 16 km
2020/09/21 04:54 KROC 210454Z 23003KT 10SM CLR 04/03 A3057 RMK AO2 SLP359 T00440028 401670033 $
 
CXTO - Toronto City, Ontario, Canada
Distance from station: NW 51mi, 82km
Updated: Mon, 21-Sep-2020 1:00am EDT

 
Temperature: 55°F , 13°C
Dew Point: 37°F , 3°C
Humidity: 51%
2020/09/21 05:00 CXTO 210500Z AUTO 13/03 RMK AO1 SLP350 T01250031 55002
CYOO - Oshawa, Ontario, Canada
Distance from station: NNW 54mi, 87km
Updated: Mon, 21-Sep-2020 1:00am EDT
Clear
Clear
 Wind from NNE
Wind: NNE 3 mph , 6 km/h
Temperature: 39°F , 4°C
Dew Point: 39°F , 4°C
Humidity: 100%
Barometer: 30.55 inHg , 1034.5 hPa
Clouds: Clear
Visibility: 9 miles , 14 km
2020/09/21 05:00 CYOO 210500Z AUTO 03003KT 9SM CLR 04/04 A3055 RMK SLP349
 
KDKK - Dunkirk, New York, USA
Distance from station: SW 54mi, 87km
Updated: Mon, 21-Sep-2020 12:53am EDT
Clear
Clear
 Wind from calm
Wind: Calm
Temperature: 48°F , 9°C
Dew Point: 34°F , 1°C
Humidity: 58%
Barometer: 30.52 inHg , 1033.5 hPa
Clouds: Clear
Visibility: 10 miles , 16 km
2020/09/21 04:53 KDKK 210453Z AUTO 00000KT 10SM CLR 09/01 A3052 RMK AO2 SLP336 T00890011 401940061 $
CWWB - Burlington Piers, Ontario, Canada
Distance from station: W 56mi, 91km
Updated: Mon, 21-Sep-2020 1:00am EDT

 Wind from SE
Wind: SE 9 mph , 15 km/h
Temperature: 55°F , 13°C
Dew Point: 39°F , 4°C
Humidity: 55%
2020/09/21 05:00 CWWB 210500Z AUTO 13008KT 13/04 RMK AO1 SLP345 T01340037 55001
 
CYYZ - Toronto/Pearson, Ontario, Canada
Distance from station: NW 59mi, 95km
Updated: Mon, 21-Sep-2020 1:00am EDT
Clear
Clear
 Wind from SSE
Wind: SSE 2 mph , 4 km/h
Temperature: 52°F , 11°C
Dew Point: 39°F , 4°C
Humidity: 62%
Barometer: 30.54 inHg , 1034.2 hPa
Clouds: Clear
Visibility: 15 miles , 24 km
2020/09/21 05:00 CYYZ 210500Z 16002KT 15SM SKC 11/04 A3054 RMK SLP347
CWNC - Cobourg (mars), Ontario, Canada
Distance from station: NNE 61mi, 98km
Updated: Mon, 21-Sep-2020 1:00am EDT

 Wind from NNE
Wind: NNE 5 mph , 7 km/h
Temperature: 45°F , 7°C
Wind Chill: 42°F , 6°C
Dew Point: 39°F , 4°C
Humidity: 81%
2020/09/21 05:00 CWNC 210500Z AUTO 03004KT 07/04 RMK AO1 SLP351 T00700038 57002
 
CXHM - Hamilton Rbg Cs, Ontario, Canada
Distance from station: W 62mi, 100km
Updated: Mon, 21-Sep-2020 1:00am EDT

 Wind from ENE
Wind: ENE 2 mph , 4 km/h
Temperature: 45°F , 7°C
Dew Point: 37°F , 3°C
Humidity: 76%
2020/09/21 05:00 CXHM 210500Z AUTO 06002KT 07/03 RMK AO1 SLP345 T00680034 58001
CYHM - Hamilton Airport, Ontario, Canada
Distance from station: W 63mi, 101km
Updated: Mon, 21-Sep-2020 1:00am EDT
Clear
Clear
 Wind from ENE
Wind: ENE 7 mph , 11 km/h
Temperature: 45°F , 7°C
Wind Chill: 41°F , 5°C
Dew Point: 34°F , 1°C
Humidity: 66%
Barometer: 30.53 inHg , 1033.9 hPa
Clouds: Clear
Visibility: 15 miles , 24 km
2020/09/21 05:00 CYHM 210500Z 07006KT 15SM SKC 07/01 A3053 RMK SLP345
 
KDSV - Dansville, New York, USA
Distance from station: SE 63mi, 102km
Updated: Mon, 21-Sep-2020 12:54am EDT
Clear
Clear
 Wind from S
Wind: S 5 mph , 7 km/h
Temperature: 39°F , 4°C
Wind Chill: 35°F , 2°C
Dew Point: 34°F , 1°C
Humidity: 81%
Barometer: 30.59 inHg , 1035.9 hPa
Clouds: Clear
Visibility: 10 miles , 16 km
2020/09/21 04:54 KDSV 210454Z AUTO 18004KT 10SM CLR 04/01 A3059 RMK AO2 SLP371 T00440011 401830006
KOLE - Olean, New York, USA
Distance from station: SSE 65mi, 105km
Updated: Mon, 21-Sep-2020 1:35am EDT
Clear
Clear
 Wind from E
Wind: E 6 mph , 9 km/h
Temperature: 37°F , 3°C
Wind Chill: 32°F , 0°C
Dew Point: 30°F , -1°C
Humidity: 75%
Barometer: 30.54 inHg , 1034.2 hPa
Clouds: Clear
Visibility: 10 miles , 16 km
2020/09/21 05:35 KOLE 210535Z AUTO 09005KT 10SM CLR 03/M01 A3054 RMK AO2